createdAt,value
2022-11-19T00:00:49.613Z,100654.81
2022-11-19T00:03:16.097Z,100658.59
2022-11-19T00:05:42.454Z,100656.59
2022-11-19T00:08:08.781Z,100648.16
2022-11-19T00:10:35.188Z,100646.53
2022-11-19T00:13:01.590Z,100643.00
2022-11-19T00:15:28.239Z,100652.84
2022-11-19T00:17:54.516Z,100643.47
2022-11-19T00:20:20.761Z,100640.22
2022-11-19T00:22:47.151Z,100653.81
2022-11-19T00:25:13.555Z,100654.63
2022-11-19T00:27:39.897Z,100665.38
2022-11-19T00:30:19.917Z,100665.88
2022-11-19T00:32:52.509Z,100668.81
2022-11-19T00:35:19.043Z,100674.09
2022-11-19T00:37:45.495Z,100675.72
2022-11-19T00:40:11.865Z,100682.97
2022-11-19T00:42:38.187Z,100681.22
2022-11-19T00:45:04.668Z,100689.06
2022-11-19T00:47:31.286Z,100688.72
2022-11-19T00:49:57.911Z,100685.69
2022-11-19T00:52:24.192Z,100687.53
2022-11-19T00:54:50.684Z,100691.28
2022-11-19T00:57:17.181Z,100693.19
2022-11-19T00:59:43.563Z,100692.03
2022-11-19T01:02:09.881Z,100684.97
2022-11-19T01:04:36.207Z,100689.78
2022-11-19T01:07:02.628Z,100694.34
2022-11-19T01:09:29.033Z,100695.41
2022-11-19T01:11:55.390Z,100690.97
2022-11-19T01:14:21.706Z,100693.91
2022-11-19T01:16:48.077Z,100697.28
2022-11-19T01:19:14.455Z,100704.06
2022-11-19T01:21:40.725Z,100706.63
2022-11-19T01:24:07.115Z,100700.91
2022-11-19T01:26:33.372Z,100701.72
2022-11-19T01:28:59.892Z,100702.53
2022-11-19T01:31:26.708Z,100701.59
2022-11-19T01:33:53.268Z,100702.31
2022-11-19T01:36:19.590Z,100692.59
2022-11-19T01:38:45.976Z,100694.00
2022-11-19T01:41:12.384Z,100699.03
2022-11-19T01:43:38.705Z,100699.47
2022-11-19T01:46:05.018Z,100697.63
2022-11-19T01:48:31.433Z,100703.47
2022-11-19T01:50:57.809Z,100707.44
2022-11-19T01:53:24.315Z,100709.78
2022-11-19T01:55:50.575Z,100709.78
2022-11-19T01:58:17.006Z,100710.00
2022-11-19T02:00:43.325Z,100700.75
2022-11-19T02:03:10.104Z,100711.38
2022-11-19T02:05:37.096Z,100710.72
2022-11-19T02:08:03.821Z,100712.44
2022-11-19T02:10:30.695Z,100712.19
2022-11-19T02:12:57.023Z,100711.59
2022-11-19T02:15:33.196Z,100719.88
2022-11-19T02:17:59.692Z,100702.56
2022-11-19T02:20:26.552Z,100703.63
2022-11-19T02:22:53.297Z,100700.59
2022-11-19T02:25:19.921Z,100699.19
2022-11-19T02:27:46.522Z,100697.31
2022-11-19T02:30:12.895Z,100703.16
2022-11-19T02:32:39.179Z,100704.19
2022-11-19T02:35:05.507Z,100706.31
2022-11-19T02:37:31.797Z,100704.91
2022-11-19T02:39:58.085Z,100708.88
2022-11-19T02:42:24.398Z,100707.19
2022-11-19T02:44:50.713Z,100703.72
2022-11-19T02:47:16.998Z,100710.16
2022-11-19T02:49:43.636Z,100704.16
2022-11-19T02:52:09.885Z,100703.81
2022-11-19T02:54:36.171Z,100717.03
2022-11-19T02:57:02.548Z,100718.31
2022-11-19T02:59:28.912Z,100715.47
2022-11-19T03:01:55.205Z,100708.34
2022-11-19T03:04:21.463Z,100717.94
2022-11-19T03:06:47.883Z,100716.28
2022-11-19T03:09:14.227Z,100721.88
2022-11-19T03:11:40.535Z,100721.88
2022-11-19T03:14:06.859Z,100724.22
2022-11-19T03:16:33.172Z,100725.28
2022-11-19T03:18:59.802Z,100725.50
2022-11-19T03:21:26.127Z,100729.69
2022-11-19T03:23:52.437Z,100729.47
2022-11-19T03:26:18.729Z,100733.66
2022-11-19T03:28:45.078Z,100735.28
2022-11-19T03:31:11.511Z,100742.16
2022-11-19T03:33:37.799Z,100731.63
2022-11-19T03:36:04.079Z,100735.97
2022-11-19T03:38:30.467Z,100736.44
2022-11-19T03:40:56.726Z,100736.22
2022-11-19T03:43:23.101Z,100738.72
2022-11-19T03:45:49.419Z,100738.94
2022-11-19T03:48:15.888Z,100735.47
2022-11-19T03:50:42.269Z,100733.84
2022-11-19T03:53:08.677Z,100744.81
2022-11-19T03:55:34.984Z,100742.56
2022-11-19T03:58:01.238Z,100741.72
2022-11-19T04:00:27.521Z,100738.47
2022-11-19T04:02:53.929Z,100747.56
2022-11-19T04:05:20.333Z,100752.94
2022-11-19T04:07:46.846Z,100745.69
2022-11-19T04:10:13.157Z,100750.47
2022-11-19T04:12:39.731Z,100750.91
2022-11-19T04:15:05.988Z,100744.97
2022-11-19T04:17:32.279Z,100751.13
2022-11-19T04:19:58.527Z,100747.66
2022-11-19T04:22:24.808Z,100748.94
2022-11-19T04:24:51.165Z,100754.53
2022-11-19T04:27:17.480Z,100754.72
2022-11-19T04:29:43.795Z,100753.31
2022-11-19T04:32:10.089Z,100747.13
2022-11-19T04:34:36.401Z,100752.50
2022-11-19T04:37:02.665Z,100750.25
2022-11-19T04:39:28.954Z,100755.03
2022-11-19T04:41:55.246Z,100765.56
2022-11-19T04:44:21.625Z,100764.94
2022-11-19T04:46:48.025Z,100766.22
2022-11-19T04:49:14.355Z,100759.22
2022-11-19T04:51:40.653Z,100766.66
2022-11-19T04:54:06.985Z,100769.56
2022-11-19T04:56:33.329Z,100768.50
2022-11-19T04:58:59.673Z,100766.03
2022-11-19T05:01:25.967Z,100759.47
2022-11-19T05:03:52.364Z,100763.22
2022-11-19T05:06:18.654Z,100754.31
2022-11-19T05:08:45.046Z,100750.63
2022-11-19T05:11:11.485Z,100751.63
2022-11-19T05:13:37.861Z,100756.41
2022-11-19T05:16:04.354Z,100745.06
2022-11-19T05:18:30.643Z,100748.00
2022-11-19T05:20:57.241Z,100757.06
2022-11-19T05:23:23.606Z,100753.59
2022-11-19T05:25:49.975Z,100749.50
2022-11-19T05:28:16.257Z,100750.50
2022-11-19T05:30:42.534Z,100742.47
2022-11-19T05:33:08.825Z,100747.25
2022-11-19T05:35:35.216Z,100754.69
2022-11-19T05:38:01.620Z,100746.88
2022-11-19T05:40:28.005Z,100751.19
2022-11-19T05:42:54.348Z,100750.56
2022-11-19T05:45:20.701Z,100748.94
2022-11-19T05:47:48.829Z,100752.69
2022-11-19T05:50:15.248Z,100753.94
2022-11-19T05:52:41.558Z,100759.91
2022-11-19T05:55:07.883Z,100756.00
2022-11-19T05:57:34.214Z,100754.16
2022-11-19T06:00:00.541Z,100761.38
2022-11-19T06:02:26.982Z,100760.78
2022-11-19T06:04:53.325Z,100761.38
2022-11-19T06:07:19.855Z,100759.16
2022-11-19T06:09:46.201Z,100763.91
2022-11-19T06:12:12.568Z,100774.66
2022-11-19T06:14:38.886Z,100758.75
2022-11-19T06:17:05.176Z,100762.72
2022-11-19T06:19:31.484Z,100762.72
2022-11-19T06:21:57.796Z,100769.13
2022-11-19T06:24:24.082Z,100769.56
2022-11-19T06:26:50.348Z,100774.34
2022-11-19T06:29:16.925Z,100775.97
2022-11-19T06:31:43.570Z,100782.59
2022-11-19T06:34:09.977Z,100787.13
2022-11-19T06:36:41.198Z,100787.34
2022-11-19T06:39:10.088Z,100773.94
2022-11-19T06:41:36.673Z,100766.94
2022-11-19T06:44:02.945Z,100768.00
2022-11-19T06:46:29.377Z,100774.63
2022-11-19T06:48:55.651Z,100776.25
2022-11-19T06:51:22.091Z,100774.63
2022-11-19T06:53:48.534Z,100769.47
2022-11-19T06:56:14.892Z,100772.38
2022-11-19T06:58:41.534Z,100769.69
2022-11-19T07:01:07.990Z,100767.44
2022-11-19T07:03:34.419Z,100768.69
2022-11-19T07:06:00.801Z,100767.66
2022-11-19T07:08:27.106Z,100769.94
2022-11-19T07:10:53.437Z,100759.22
2022-11-19T07:13:20.051Z,100761.91
2022-11-19T07:15:46.355Z,100757.59
2022-11-19T07:18:12.652Z,100757.00
2022-11-19T07:20:39.165Z,100764.44
2022-11-19T07:23:05.614Z,100761.16
2022-11-19T07:25:32.039Z,100758.47
2022-11-19T07:27:58.443Z,100757.03
2022-11-19T07:30:24.715Z,100752.50
2022-11-19T07:32:50.981Z,100757.28
2022-11-19T07:35:17.290Z,100751.91
2022-11-19T07:37:43.606Z,100757.28
2022-11-19T07:40:10.006Z,100755.59
2022-11-19T07:42:36.356Z,100764.47
2022-11-19T07:45:02.752Z,100758.53
2022-11-19T07:47:29.117Z,100757.91
2022-11-19T07:49:55.412Z,100752.16
2022-11-19T07:52:21.683Z,100752.75
2022-11-19T07:54:47.988Z,100755.66
2022-11-19T07:57:14.307Z,100759.16
2022-11-19T07:59:40.684Z,100762.75
2022-11-19T08:02:07.103Z,100773.00
2022-11-19T08:04:33.522Z,100768.91
2022-11-19T08:06:59.984Z,100770.53
2022-11-19T08:09:26.531Z,100764.22
2022-11-19T08:11:52.855Z,100766.06
2022-11-19T08:14:19.219Z,100767.25
2022-11-19T08:21:56.432Z,100755.13
2022-11-19T08:24:23.254Z,100749.59
2022-11-19T08:26:50.247Z,100747.94
2022-11-19T08:29:16.944Z,100748.53
2022-11-19T08:31:43.394Z,100744.03
2022-11-19T08:34:09.627Z,100734.78
2022-11-19T08:36:35.893Z,100744.66
2022-11-19T08:39:02.187Z,100738.72
2022-11-19T08:41:28.687Z,100737.03
2022-11-19T08:43:55.147Z,100743.22
2022-11-19T08:46:21.449Z,100739.31
2022-11-19T08:48:47.826Z,100738.91
2022-11-19T08:51:14.117Z,100741.16
2022-11-19T08:53:40.430Z,100734.38
2022-11-19T08:56:06.706Z,100735.59
2022-11-19T08:58:33.056Z,100724.53
2022-11-19T09:06:14.471Z,100723.38
2022-11-19T09:08:41.051Z,100727.91
2022-11-19T09:11:07.629Z,100731.63
2022-11-19T09:13:33.969Z,100731.44
2022-11-19T09:16:00.768Z,100725.88
2022-11-19T09:18:27.507Z,100721.16
2022-11-19T09:20:54.061Z,100727.72
2022-11-19T09:23:20.508Z,100716.38
2022-11-19T09:25:46.896Z,100727.91
2022-11-19T09:28:13.333Z,100723.59
2022-11-19T09:30:39.781Z,100719.69
2022-11-19T09:33:06.198Z,100720.91
2022-11-19T09:35:32.697Z,100727.09
2022-11-19T09:37:59.192Z,100730.31
2022-11-19T09:40:25.557Z,100730.91
2022-11-19T09:42:52.005Z,100728.34
2022-11-19T09:45:18.355Z,100728.69
2022-11-19T09:47:44.704Z,100728.78
2022-11-19T09:50:11.508Z,100733.44
2022-11-19T09:52:37.987Z,100737.34
2022-11-19T09:55:04.305Z,100733.38
2022-11-19T09:57:30.720Z,100735.63
2022-11-19T09:59:57.227Z,100739.31
2022-11-19T10:02:23.741Z,100727.06
2022-11-19T10:04:50.164Z,100731.94
2022-11-19T10:07:16.453Z,100725.06
2022-11-19T10:09:43.012Z,100724.22
2022-11-19T10:12:09.364Z,100722.72
2022-11-19T10:14:35.694Z,100722.47
2022-11-19T10:17:01.999Z,100710.84
2022-11-19T10:19:28.538Z,100707.72
2022-11-19T10:21:54.941Z,100708.53
2022-11-19T10:24:21.739Z,100702.28
2022-11-19T10:26:48.749Z,100696.19
2022-11-19T10:34:32.510Z,100693.94
2022-11-19T10:36:58.833Z,100679.91
2022-11-19T10:39:25.248Z,100682.34
2022-11-19T10:41:51.659Z,100682.56
2022-11-19T10:44:18.183Z,100678.03
2022-11-19T10:46:44.814Z,100667.66
2022-11-19T10:49:11.185Z,100670.34
2022-11-19T10:51:37.451Z,100671.16
2022-11-19T10:54:03.736Z,100664.28
2022-11-19T10:56:30.001Z,100661.38
2022-11-19T10:58:56.469Z,100667.78
2022-11-19T11:01:23.023Z,100664.44
2022-11-19T11:03:49.283Z,100662.31
2022-11-19T11:06:15.749Z,100655.44
2022-11-19T11:08:42.055Z,100648.00
2022-11-19T11:13:43.523Z,100653.13
2022-11-19T11:16:09.900Z,100642.75
2022-11-19T11:18:36.428Z,100645.44
2022-11-19T11:21:03.031Z,100638.66
2022-11-19T11:23:29.353Z,100647.53
2022-11-19T11:25:55.634Z,100653.13
2022-11-19T11:28:22.513Z,100650.22
2022-11-19T11:30:49.241Z,100649.16
2022-11-19T11:33:15.741Z,100649.41
2022-11-19T11:35:42.039Z,100641.91
2022-11-19T11:38:08.509Z,100640.28
2022-11-19T11:40:34.871Z,100635.50
2022-11-19T11:43:01.331Z,100632.81
2022-11-19T11:45:28.014Z,100621.03
2022-11-19T11:47:54.473Z,100631.53
2022-11-19T11:50:20.813Z,100612.97
2022-11-19T11:52:47.085Z,100615.03
2022-11-19T11:55:13.545Z,100617.72
2022-11-19T11:57:40.031Z,100614.25
2022-11-19T12:00:06.685Z,100606.41
2022-11-19T12:02:33.115Z,100601.88
2022-11-19T12:04:59.529Z,100607.25
2022-11-19T12:07:25.800Z,100605.13
2022-11-19T12:09:52.168Z,100601.25
2022-11-19T12:12:18.676Z,100606.63
2022-11-19T12:14:44.952Z,100607.91
2022-11-19T12:17:11.403Z,100601.47
2022-11-19T12:19:37.948Z,100604.56
2022-11-19T12:22:04.320Z,100595.66
2022-11-19T12:24:30.888Z,100597.63
2022-11-19T12:26:57.213Z,100597.19
2022-11-19T12:29:23.633Z,100590.53
2022-11-19T12:31:50.177Z,100599.06
2022-11-19T12:34:16.481Z,100581.88
2022-11-19T12:36:42.877Z,100590.91
2022-11-19T12:39:09.126Z,100586.94
2022-11-19T12:41:35.456Z,100589.84
2022-11-19T12:44:01.922Z,100584.25
2022-11-19T12:46:28.217Z,100592.44
2022-11-19T12:48:54.590Z,100583.47
2022-11-19T12:51:20.950Z,100592.44
2022-11-19T12:53:47.293Z,100586.72
2022-11-19T12:56:13.533Z,100602.31
2022-11-19T12:58:39.833Z,100581.13
2022-11-19T13:01:06.288Z,100589.56
2022-11-19T13:03:32.726Z,100582.78
2022-11-19T13:05:59.053Z,100579.72
2022-11-19T13:08:25.488Z,100579.00
2022-11-19T13:10:51.770Z,100579.09
2022-11-19T13:13:18.231Z,100574.97
2022-11-19T13:15:44.547Z,100571.69
2022-11-19T13:18:10.863Z,100571.31
2022-11-19T13:20:37.441Z,100580.09
2022-11-19T13:23:03.838Z,100578.88
2022-11-19T13:25:30.257Z,100577.91
2022-11-19T13:27:56.638Z,100578.59
2022-11-19T13:30:22.899Z,100574.47
2022-11-19T13:32:49.185Z,100570.59
2022-11-19T13:35:15.614Z,100575.84
2022-11-19T13:37:41.903Z,100576.16
2022-11-19T13:40:08.150Z,100573.31
2022-11-19T13:42:34.429Z,100569.31
2022-11-19T13:45:01.047Z,100566.06
2022-11-19T13:47:27.481Z,100568.50
2022-11-19T13:49:54.002Z,100565.06
2022-11-19T13:52:20.282Z,100566.47
2022-11-19T13:54:46.713Z,100573.25
2022-11-19T13:57:13.114Z,100567.28
2022-11-19T13:59:39.800Z,100566.22
2022-11-19T14:02:06.100Z,100566.00
2022-11-19T14:04:32.679Z,100562.22
2022-11-19T14:06:59.165Z,100563.63
2022-11-19T14:09:25.460Z,100569.25
2022-11-19T14:11:51.859Z,100575.78
2022-11-19T14:14:18.137Z,100567.38
2022-11-19T14:16:44.598Z,100567.38
2022-11-19T14:19:11.012Z,100568.09
2022-11-19T14:21:37.354Z,100562.94
2022-11-19T14:24:03.655Z,100568.91
2022-11-19T14:26:29.970Z,100570.31
2022-11-19T14:28:56.464Z,100560.84
2022-11-19T14:31:22.742Z,100558.53
2022-11-19T14:33:49.072Z,100564.75
2022-11-19T14:36:15.414Z,100568.25
2022-11-19T14:38:41.751Z,100569.31
2022-11-19T14:41:08.049Z,100553.63
2022-11-19T14:43:34.385Z,100555.53
2022-11-19T14:46:00.757Z,100559.53
2022-11-19T14:48:27.259Z,100560.56
2022-11-19T14:50:53.804Z,100555.09
2022-11-19T14:53:20.331Z,100553.69
2022-11-19T14:55:46.668Z,100557.78
2022-11-19T14:58:12.977Z,100553.69
2022-11-19T15:00:39.260Z,100557.47
2022-11-19T15:03:06.096Z,100553.13
2022-11-19T15:05:32.521Z,100552.53
2022-11-19T15:07:58.941Z,100549.84
2022-11-19T15:10:25.663Z,100552.78
2022-11-19T15:12:51.932Z,100554.91
2022-11-19T15:15:18.522Z,100556.69
2022-11-19T15:17:44.969Z,100554.22
2022-11-19T15:25:25.733Z,100539.97
2022-11-19T15:27:52.026Z,100538.91
2022-11-19T15:30:18.813Z,100539.81
2022-11-19T15:32:45.137Z,100543.34
2022-11-19T15:35:11.968Z,100546.28
2022-11-19T15:37:38.623Z,100541.94
2022-11-19T15:40:05.149Z,100556.47
2022-11-19T15:42:31.512Z,100543.25
2022-11-19T15:44:58.112Z,100547.00
2022-11-19T15:47:24.445Z,100541.88
2022-11-19T15:49:50.767Z,100542.91
2022-11-19T15:52:18.259Z,100553.56
2022-11-19T15:54:44.828Z,100543.03
2022-11-19T15:59:50.738Z,100548.94
2022-11-19T16:02:17.005Z,100549.16
2022-11-19T16:04:43.253Z,100545.31
2022-11-19T16:07:09.583Z,100541.84
2022-11-19T16:09:35.908Z,100538.38
2022-11-19T16:12:02.191Z,100538.72
2022-11-19T16:14:28.752Z,100534.78
2022-11-19T16:16:55.041Z,100543.22
2022-11-19T16:19:21.636Z,100536.94
2022-11-19T16:21:48.379Z,100536.81
2022-11-19T16:24:14.797Z,100537.53
2022-11-19T16:26:41.093Z,100540.69
2022-11-19T16:29:07.330Z,100547.31
2022-11-19T16:31:33.620Z,100541.81
2022-11-19T16:34:00.190Z,100535.38
2022-11-19T16:36:26.638Z,100531.63
2022-11-19T16:38:53.178Z,100535.38
2022-11-19T16:41:19.507Z,100531.53
2022-11-19T16:43:45.828Z,100533.22
2022-11-19T16:46:12.095Z,100533.53
2022-11-19T16:48:38.557Z,100528.63
2022-11-19T16:51:04.958Z,100533.78
2022-11-19T16:53:31.737Z,100533.06
2022-11-19T16:55:58.085Z,100533.88
2022-11-19T16:58:24.387Z,100529.56
2022-11-19T17:00:50.789Z,100535.63
2022-11-19T17:05:52.797Z,100537.13
2022-11-19T17:08:19.054Z,100533.50
2022-11-19T17:10:45.410Z,100551.16
2022-11-19T17:18:29.793Z,100543.53
2022-11-19T17:20:56.082Z,100539.91
2022-11-19T17:23:22.632Z,100537.69
2022-11-19T17:28:18.159Z,100545.63
2022-11-19T17:35:57.803Z,100554.59
2022-11-19T17:41:04.886Z,100563.28
2022-11-19T17:48:49.845Z,100564.53
2022-11-19T17:51:16.303Z,100557.75
2022-11-19T17:53:42.948Z,100561.13
2022-11-19T17:56:09.392Z,100563.56
2022-11-19T17:58:35.858Z,100558.69
2022-11-19T18:07:16.518Z,100559.47
2022-11-19T18:09:44.586Z,100560.84
2022-11-19T18:15:43.669Z,100553.19
2022-11-19T18:32:41.851Z,100555.97
2022-11-19T18:59:04.709Z,100562.47
2022-11-19T19:09:24.223Z,100566.63
2022-11-19T19:33:13.897Z,100576.63
2022-11-19T20:12:55.921Z,100590.59
2022-11-19T22:07:35.989Z,100591.34
2022-11-19T22:18:00.005Z,100594.53
2022-11-19T22:36:23.036Z,100577.50
2022-11-19T22:38:49.466Z,100589.44
2022-11-19T22:41:15.766Z,100586.47
2022-11-19T22:54:20.048Z,100587.47
2022-11-19T23:07:13.069Z,100580.63
2022-11-19T23:17:41.111Z,100569.34
2022-11-19T23:20:07.586Z,100567.22
2022-11-19T23:33:01.077Z,100565.94
2022-11-19T23:35:27.366Z,100560.81
2022-11-19T23:48:32.065Z,100554.91
2022-11-19T23:50:58.362Z,100556.00
